createdAt,value
2022-08-26T00:03:00.269Z,22.40
2022-08-26T00:06:04.274Z,22.35
2022-08-26T00:09:09.058Z,22.33
2022-08-26T00:12:13.591Z,22.33
2022-08-26T00:15:20.210Z,22.27
2022-08-26T00:18:24.930Z,22.27
2022-08-26T00:21:29.945Z,22.24
2022-08-26T00:24:34.181Z,22.24
2022-08-26T00:27:39.616Z,22.24
2022-08-26T00:30:47.955Z,22.21
2022-08-26T00:33:55.598Z,22.19
2022-08-26T00:37:00.403Z,22.19
2022-08-26T00:40:07.636Z,22.17
2022-08-26T00:43:16.011Z,22.15
2022-08-26T00:46:25.265Z,22.10
2022-08-26T00:49:39.621Z,22.03
2022-08-26T00:52:44.729Z,22.02
2022-08-26T00:56:01.520Z,21.95
2022-08-26T00:59:08.638Z,21.95
2022-08-26T01:02:21.151Z,21.97
2022-08-26T01:05:25.692Z,21.91
2022-08-26T01:08:30.034Z,21.90
2022-08-26T01:11:34.768Z,21.84
2022-08-26T01:14:40.986Z,21.84
2022-08-26T01:17:50.812Z,21.85
2022-08-26T01:21:24.970Z,21.85
2022-08-26T01:24:30.799Z,21.82
2022-08-26T01:27:35.367Z,21.78
2022-08-26T01:30:40.837Z,21.78
2022-08-26T01:33:52.392Z,21.77
2022-08-26T01:37:19.764Z,21.74
2022-08-26T01:40:29.673Z,21.69
2022-08-26T01:43:34.345Z,21.66
2022-08-26T01:46:38.557Z,21.64
2022-08-26T01:49:44.604Z,21.66
2022-08-26T01:52:54.693Z,21.61
2022-08-26T01:56:02.229Z,21.61
2022-08-26T01:59:10.909Z,21.64
2022-08-26T02:02:17.129Z,21.64
2022-08-26T02:05:22.100Z,21.65
2022-08-26T02:08:32.646Z,21.67
2022-08-26T02:11:37.009Z,21.64
2022-08-26T02:14:50.135Z,21.64
2022-08-26T02:17:55.615Z,21.61
2022-08-26T02:21:01.824Z,21.65
2022-08-26T02:24:13.116Z,21.63
2022-08-26T02:27:19.558Z,21.60
2022-08-26T02:30:26.867Z,21.60
2022-08-26T02:33:32.027Z,21.60
2022-08-26T02:36:36.753Z,21.69
2022-08-26T02:39:41.940Z,21.69
2022-08-26T02:42:46.229Z,21.66
2022-08-26T02:45:50.252Z,21.62
2022-08-26T02:48:54.868Z,21.60
2022-08-26T02:52:02.005Z,21.58
2022-08-26T02:55:07.066Z,21.55
2022-08-26T02:58:11.405Z,21.51
2022-08-26T03:01:25.624Z,21.54
2022-08-26T03:04:31.066Z,21.50
2022-08-26T03:07:37.948Z,21.47
2022-08-26T03:10:41.681Z,21.46
2022-08-26T03:13:45.835Z,21.46
2022-08-26T03:16:52.353Z,21.43
2022-08-26T03:19:57.279Z,21.42
2022-08-26T03:23:01.280Z,21.40
2022-08-26T03:26:07.152Z,21.34
2022-08-26T03:29:33.282Z,21.31
2022-08-26T03:32:37.450Z,21.30
2022-08-26T03:35:43.560Z,21.28
2022-08-26T03:38:47.253Z,21.24
2022-08-26T03:41:52.397Z,21.23
2022-08-26T03:44:57.218Z,21.22
2022-08-26T03:48:01.092Z,21.26
2022-08-26T03:51:12.480Z,21.24
2022-08-26T03:54:16.352Z,21.23
2022-08-26T03:57:20.753Z,21.20
2022-08-26T04:00:26.912Z,21.18
2022-08-26T04:03:49.413Z,21.17
2022-08-26T04:06:58.317Z,21.11
2022-08-26T04:10:02.496Z,21.07
2022-08-26T04:13:06.720Z,21.06
2022-08-26T04:16:10.853Z,21.04
2022-08-26T04:19:16.027Z,21.05
2022-08-26T04:22:24.184Z,21.03
2022-08-26T04:25:29.308Z,21.03
2022-08-26T04:28:33.339Z,21.00
2022-08-26T04:31:38.127Z,21.01
2022-08-26T04:34:42.044Z,21.00
2022-08-26T04:37:45.853Z,21.02
2022-08-26T04:40:49.514Z,21.04
2022-08-26T04:43:53.561Z,21.10
2022-08-26T04:46:58.598Z,21.12
2022-08-26T04:50:03.062Z,21.17
2022-08-26T04:53:07.438Z,21.18
2022-08-26T04:56:12.377Z,21.18
2022-08-26T04:59:18.128Z,21.21
2022-08-26T05:02:22.557Z,21.26
2022-08-26T05:05:27.464Z,21.29
2022-08-26T05:08:31.429Z,21.32
2022-08-26T05:11:36.087Z,21.33
2022-08-26T05:14:41.395Z,21.38
2022-08-26T05:17:45.205Z,21.44
2022-08-26T05:20:53.885Z,21.51
2022-08-26T05:23:58.943Z,21.59
2022-08-26T05:27:03.562Z,21.65
2022-08-26T05:30:15.697Z,21.70
2022-08-26T05:33:20.102Z,21.75
2022-08-26T05:36:27.425Z,21.81
2022-08-26T05:39:33.027Z,21.89
2022-08-26T05:42:36.878Z,21.97
2022-08-26T05:45:49.121Z,22.04
2022-08-26T05:48:55.165Z,22.14
2022-08-26T05:51:59.139Z,22.23
2022-08-26T05:55:04.511Z,22.29
2022-08-26T05:58:08.438Z,22.31
2022-08-26T06:01:17.655Z,22.32
2022-08-26T06:04:23.005Z,22.34
2022-08-26T06:07:50.319Z,22.41
2022-08-26T06:10:59.186Z,22.46
2022-08-26T06:14:05.338Z,22.52
2022-08-26T06:17:09.606Z,22.51
2022-08-26T06:20:14.105Z,22.60
2022-08-26T06:23:37.292Z,22.64
2022-08-26T06:26:53.957Z,22.69
2022-08-26T06:29:57.760Z,22.75
2022-08-26T06:33:01.743Z,22.82
2022-08-26T06:36:06.764Z,22.89
2022-08-26T06:39:13.671Z,23.03
2022-08-26T06:42:18.248Z,23.16
2022-08-26T06:45:22.694Z,23.12
2022-08-26T06:48:26.895Z,23.24
2022-08-26T06:51:34.566Z,23.30
2022-08-26T06:54:43.010Z,23.31
2022-08-26T06:57:47.295Z,23.38
2022-08-26T07:00:51.624Z,23.37
2022-08-26T07:03:58.928Z,23.47
2022-08-26T07:07:03.492Z,23.58
2022-08-26T07:10:08.643Z,23.71
2022-08-26T07:13:12.644Z,23.66
2022-08-26T07:16:18.126Z,23.76
2022-08-26T07:19:29.950Z,23.73
2022-08-26T07:22:37.019Z,23.74
2022-08-26T07:25:42.212Z,23.90
2022-08-26T07:28:50.546Z,24.07
2022-08-26T07:31:58.269Z,24.04
2022-08-26T07:35:02.137Z,24.17
2022-08-26T07:38:06.379Z,24.41
2022-08-26T07:41:13.273Z,24.71
2022-08-26T07:44:17.592Z,24.90
2022-08-26T07:47:25.167Z,24.99
2022-08-26T07:50:48.864Z,25.11
2022-08-26T07:53:53.498Z,25.24
2022-08-26T07:56:57.225Z,25.29
2022-08-26T08:00:02.762Z,25.27
2022-08-26T08:03:07.179Z,25.12
2022-08-26T08:06:12.248Z,25.44
2022-08-26T08:09:16.442Z,25.43
2022-08-26T08:12:20.882Z,25.43
2022-08-26T08:15:27.802Z,25.51
2022-08-26T08:18:32.029Z,25.66
2022-08-26T08:21:36.207Z,25.84
2022-08-26T08:24:40.336Z,26.03
2022-08-26T08:27:45.229Z,26.47
2022-08-26T08:30:49.756Z,26.81
2022-08-26T08:33:53.920Z,27.12
2022-08-26T08:36:58.232Z,26.98
2022-08-26T08:40:04.351Z,26.77
2022-08-26T08:43:14.738Z,26.75
2022-08-26T08:46:20.100Z,27.01
2022-08-26T08:49:25.875Z,27.02
2022-08-26T08:52:35.287Z,26.85
2022-08-26T08:55:49.771Z,26.89
2022-08-26T08:59:15.185Z,26.93
2022-08-26T09:03:01.649Z,26.98
2022-08-26T09:06:16.905Z,27.13
2022-08-26T09:09:32.844Z,27.44
2022-08-26T09:12:37.155Z,27.56
2022-08-26T09:15:54.575Z,27.67
2022-08-26T09:19:41.329Z,27.84
2022-08-26T09:22:45.920Z,28.12
2022-08-26T09:25:49.997Z,28.36
2022-08-26T09:28:58.459Z,28.36
2022-08-26T09:32:25.015Z,28.32
2022-08-26T09:35:52.230Z,27.95
2022-08-26T09:38:56.140Z,28.15
2022-08-26T09:42:19.105Z,28.23
2022-08-26T09:45:28.310Z,28.36
2022-08-26T09:48:40.520Z,28.46
2022-08-26T09:51:45.335Z,28.33
2022-08-26T09:55:02.245Z,28.37
2022-08-26T09:58:09.371Z,28.31
2022-08-26T10:01:45.914Z,28.26
2022-08-26T10:04:53.976Z,28.33
2022-08-26T10:07:59.565Z,28.33
2022-08-26T10:11:26.555Z,28.29
2022-08-26T10:14:49.818Z,28.43
2022-08-26T10:18:24.686Z,28.27
2022-08-26T10:21:38.926Z,28.26
2022-08-26T10:24:49.845Z,28.44
2022-08-26T10:28:09.103Z,28.50
2022-08-26T10:31:27.552Z,28.32
2022-08-26T10:34:33.279Z,28.43
2022-08-26T10:37:41.553Z,28.43
2022-08-26T10:41:09.752Z,28.63
2022-08-26T10:44:18.100Z,28.93
2022-08-26T10:47:31.444Z,28.92
2022-08-26T10:50:41.627Z,29.11
2022-08-26T10:53:55.775Z,29.07
2022-08-26T10:57:12.729Z,28.95
2022-08-26T11:00:41.522Z,28.71
2022-08-26T11:04:45.759Z,28.59
2022-08-26T11:08:12.902Z,28.94
2022-08-26T11:11:41.933Z,29.10
2022-08-26T11:14:53.393Z,29.31
2022-08-26T11:18:10.035Z,29.62
2022-08-26T11:21:49.573Z,29.78
2022-08-26T11:24:54.704Z,29.95
2022-08-26T11:28:00.557Z,30.09
2022-08-26T11:31:08.766Z,30.15
2022-08-26T11:34:14.066Z,29.98
2022-08-26T11:40:33.764Z,30.30
2022-08-26T11:43:39.804Z,30.53
2022-08-26T11:46:52.747Z,30.72
2022-08-26T11:50:17.043Z,30.78
2022-08-26T11:53:22.548Z,30.95
2022-08-26T11:56:33.916Z,30.78
2022-08-26T11:59:40.163Z,30.50
2022-08-26T12:02:44.694Z,30.45
2022-08-26T12:05:52.069Z,30.27
2022-08-26T12:09:01.497Z,29.52
2022-08-26T12:12:15.236Z,28.57
2022-08-26T12:15:22.668Z,28.01
2022-08-26T12:18:31.419Z,27.96
2022-08-26T12:21:35.480Z,27.73
2022-08-26T12:24:45.527Z,27.00
2022-08-26T12:27:53.743Z,26.53
2022-08-26T12:31:01.015Z,26.31
2022-08-26T12:34:17.685Z,26.18
2022-08-26T12:37:22.514Z,26.06
2022-08-26T12:40:43.816Z,26.06
2022-08-26T12:43:48.185Z,25.89
2022-08-26T12:46:52.328Z,25.81
2022-08-26T12:50:09.959Z,25.55
2022-08-26T12:53:22.407Z,25.20
2022-08-26T12:56:29.162Z,25.11
2022-08-26T12:59:32.931Z,25.09
2022-08-26T13:02:38.637Z,24.93
2022-08-26T13:05:42.515Z,24.85
2022-08-26T13:09:02.633Z,24.71
2022-08-26T13:12:06.482Z,24.64
2022-08-26T13:15:10.480Z,24.55
2022-08-26T13:18:14.410Z,24.60
2022-08-26T13:21:24.878Z,24.67
2022-08-26T13:24:34.134Z,24.79
2022-08-26T13:27:38.242Z,24.91
2022-08-26T13:30:45.723Z,25.01
2022-08-26T13:33:49.724Z,25.10
2022-08-26T13:36:56.259Z,25.09
2022-08-26T13:40:00.343Z,24.89
2022-08-26T13:43:04.767Z,24.79
2022-08-26T13:46:09.187Z,24.74
2022-08-26T13:49:13.644Z,24.68
2022-08-26T13:52:17.887Z,24.64
2022-08-26T13:55:34.417Z,24.61
2022-08-26T13:58:38.068Z,24.64
2022-08-26T14:01:42.192Z,24.70
2022-08-26T14:04:46.296Z,24.72
2022-08-26T14:07:50.276Z,24.67
2022-08-26T14:10:54.369Z,24.65
2022-08-26T14:13:58.670Z,24.58
2022-08-26T14:17:03.211Z,24.57
2022-08-26T14:20:09.701Z,24.54
2022-08-26T14:23:14.561Z,24.56
2022-08-26T14:26:27.948Z,24.55
2022-08-26T14:29:33.778Z,24.55
2022-08-26T14:32:42.823Z,24.55
2022-08-26T14:35:47.184Z,24.54
2022-08-26T14:38:54.497Z,24.54
2022-08-26T14:41:59.317Z,24.50
2022-08-26T14:45:06.698Z,24.54
2022-08-26T14:48:11.115Z,24.58
2022-08-26T14:51:15.071Z,24.60
2022-08-26T14:54:20.184Z,24.65
2022-08-26T14:57:24.494Z,24.57
2022-08-26T15:00:29.435Z,24.59
2022-08-26T15:03:33.554Z,24.52
2022-08-26T15:06:38.168Z,24.56
2022-08-26T15:09:42.808Z,24.61
2022-08-26T15:12:47.351Z,24.53
2022-08-26T15:15:51.382Z,24.64
2022-08-26T15:18:56.431Z,24.58
2022-08-26T15:22:00.254Z,24.65
2022-08-26T15:25:08.363Z,24.64
2022-08-26T15:28:12.350Z,24.70
2022-08-26T15:31:16.849Z,24.66
2022-08-26T15:34:21.045Z,24.76
2022-08-26T15:37:25.659Z,24.89
2022-08-26T15:40:29.557Z,24.97
2022-08-26T15:43:33.588Z,24.96
2022-08-26T15:46:39.125Z,25.07
2022-08-26T15:49:43.246Z,25.09
2022-08-26T15:52:47.882Z,25.07
2022-08-26T15:55:54.757Z,24.99
2022-08-26T15:59:01.346Z,24.96
2022-08-26T16:02:05.745Z,24.97
2022-08-26T16:05:10.225Z,24.99
2022-08-26T16:08:15.116Z,24.99
2022-08-26T16:11:19.852Z,25.00
2022-08-26T16:14:24.336Z,25.03
2022-08-26T16:17:28.297Z,25.01
2022-08-26T16:20:34.428Z,24.96
2022-08-26T16:23:38.606Z,24.93
2022-08-26T16:26:44.077Z,24.94
2022-08-26T16:29:48.751Z,24.95
2022-08-26T16:32:52.527Z,24.86
2022-08-26T16:35:56.295Z,24.84
2022-08-26T16:39:00.390Z,24.77
2022-08-26T16:42:04.620Z,24.69
2022-08-26T16:45:09.291Z,24.71
2022-08-26T16:48:13.447Z,24.70
2022-08-26T16:51:19.184Z,24.70
2022-08-26T16:54:23.008Z,24.68
2022-08-26T16:57:27.154Z,24.69
2022-08-26T17:00:33.002Z,24.73
2022-08-26T17:03:37.381Z,24.64
2022-08-26T17:06:41.577Z,24.56
2022-08-26T17:09:45.448Z,24.45
2022-08-26T17:12:50.694Z,24.40
2022-08-26T17:15:58.402Z,24.37
2022-08-26T17:19:05.706Z,24.35
2022-08-26T17:22:10.601Z,24.34
2022-08-26T17:25:19.285Z,24.30
2022-08-26T17:28:23.479Z,24.26
2022-08-26T17:31:27.739Z,24.21
2022-08-26T17:34:32.453Z,24.13
2022-08-26T17:37:36.915Z,24.06
2022-08-26T17:40:41.783Z,24.02
2022-08-26T17:43:45.898Z,23.99
2022-08-26T17:46:50.410Z,23.96
2022-08-26T17:49:54.230Z,23.94
2022-08-26T17:52:58.441Z,23.91
2022-08-26T17:56:08.968Z,23.92
2022-08-26T17:59:13.478Z,23.86
2022-08-26T18:02:17.641Z,23.80
2022-08-26T18:05:21.703Z,23.70
2022-08-26T18:08:25.560Z,23.64
2022-08-26T18:11:30.097Z,23.60
2022-08-26T18:14:34.306Z,23.54
2022-08-26T18:17:39.251Z,23.53
2022-08-26T18:20:45.129Z,23.48
2022-08-26T18:23:50.505Z,23.43
2022-08-26T18:26:54.398Z,23.40
2022-08-26T18:29:58.308Z,23.41
2022-08-26T18:33:03.023Z,23.36
2022-08-26T18:36:07.392Z,23.37
2022-08-26T18:39:13.391Z,23.37
2022-08-26T18:42:18.065Z,23.36
2022-08-26T18:45:23.166Z,23.34
2022-08-26T18:48:27.254Z,23.29
2022-08-26T18:51:33.613Z,23.31
2022-08-26T18:54:37.817Z,23.29
2022-08-26T18:57:41.849Z,23.25
2022-08-26T19:00:45.960Z,23.25
2022-08-26T19:03:50.395Z,23.25
2022-08-26T19:06:54.409Z,23.21
2022-08-26T19:09:58.796Z,23.20
2022-08-26T19:13:03.505Z,23.19
2022-08-26T19:16:19.423Z,23.16
2022-08-26T19:19:24.076Z,23.16
2022-08-26T19:22:27.993Z,23.14
2022-08-26T19:25:32.237Z,23.10
2022-08-26T19:28:37.127Z,23.12
2022-08-26T19:31:42.173Z,23.10
2022-08-26T19:34:48.453Z,23.09
2022-08-26T19:37:52.836Z,23.04
2022-08-26T19:40:58.874Z,23.03
2022-08-26T19:44:04.142Z,23.03
2022-08-26T19:47:09.899Z,23.05
2022-08-26T19:50:15.777Z,23.03
2022-08-26T19:53:19.938Z,23.04
2022-08-26T19:56:25.204Z,23.02
2022-08-26T19:59:29.799Z,23.00
2022-08-26T20:02:36.589Z,22.95
2022-08-26T20:05:41.407Z,22.91
2022-08-26T20:08:46.133Z,22.91
2022-08-26T20:11:50.918Z,22.90
2022-08-26T20:14:55.588Z,22.90
2022-08-26T20:17:59.815Z,22.85
2022-08-26T20:21:22.723Z,22.81
2022-08-26T20:24:27.757Z,22.83
2022-08-26T20:27:38.307Z,22.84
2022-08-26T20:30:43.193Z,22.84
2022-08-26T20:33:48.156Z,22.79
2022-08-26T20:36:52.565Z,22.78
2022-08-26T20:39:56.752Z,22.71
2022-08-26T20:43:01.122Z,22.70
2022-08-26T20:46:08.317Z,22.66
2022-08-26T20:49:20.983Z,22.60
2022-08-26T20:52:25.194Z,22.53
2022-08-26T20:55:29.659Z,22.53
2022-08-26T20:58:34.626Z,22.54
2022-08-26T21:01:42.048Z,22.51
2022-08-26T21:04:47.343Z,22.51
2022-08-26T21:07:51.867Z,22.52
2022-08-26T21:10:57.111Z,22.54
2022-08-26T21:14:06.706Z,22.48
2022-08-26T21:17:20.005Z,22.48
2022-08-26T21:20:24.131Z,22.47
2022-08-26T21:23:29.363Z,22.47
2022-08-26T21:26:33.264Z,22.48
2022-08-26T21:29:37.452Z,22.46
2022-08-26T21:32:42.066Z,22.45
2022-08-26T21:35:53.639Z,22.43
2022-08-26T21:38:59.035Z,22.42
2022-08-26T21:42:03.203Z,22.41
2022-08-26T21:45:07.800Z,22.36
2022-08-26T21:48:11.964Z,22.38
2022-08-26T21:51:18.189Z,22.37
2022-08-26T21:54:22.620Z,22.35
2022-08-26T21:57:27.928Z,22.30
2022-08-26T22:00:32.163Z,22.25
2022-08-26T22:03:47.022Z,22.22
2022-08-26T22:06:54.287Z,22.20
2022-08-26T22:09:58.666Z,22.13
2022-08-26T22:13:02.935Z,22.07
2022-08-26T22:16:07.970Z,22.02
2022-08-26T22:19:13.729Z,21.93
2022-08-26T22:22:21.008Z,21.89
2022-08-26T22:25:25.582Z,21.92
2022-08-26T22:28:29.694Z,21.89
2022-08-26T22:31:36.960Z,21.88
2022-08-26T22:34:42.789Z,21.88
2022-08-26T22:37:46.955Z,21.87
2022-08-26T22:40:57.672Z,21.83
2022-08-26T22:44:02.916Z,21.77
2022-08-26T22:47:07.256Z,21.72
2022-08-26T22:50:11.255Z,21.68
2022-08-26T22:53:16.679Z,21.62
2022-08-26T22:56:21.389Z,21.61
2022-08-26T22:59:25.330Z,21.60
2022-08-26T23:02:29.301Z,21.60
2022-08-26T23:05:33.088Z,21.58
2022-08-26T23:08:38.800Z,21.57
2022-08-26T23:11:43.733Z,21.55
2022-08-26T23:14:48.922Z,21.55
2022-08-26T23:18:09.118Z,21.55
2022-08-26T23:21:12.957Z,21.55
2022-08-26T23:24:17.425Z,21.55
2022-08-26T23:27:21.429Z,21.55
2022-08-26T23:30:27.873Z,21.54
2022-08-26T23:33:52.132Z,21.53
2022-08-26T23:36:56.937Z,21.55
2022-08-26T23:40:08.440Z,21.53
2022-08-26T23:43:12.452Z,21.55
2022-08-26T23:46:16.591Z,21.51
2022-08-26T23:49:20.642Z,21.46
2022-08-26T23:52:43.562Z,21.46
2022-08-26T23:55:49.649Z,21.46
2022-08-26T23:58:54.737Z,21.51
